Time;durP1;ratioP1;P1;durP2;ratioP2;P2;SDS_P1;SDS_P2;PMS_P1;PMS_P2;Temp;Humidity;BMP_temperature;BMP_pressure;BME280_temperature;BME280_humidity;BME280_pressure;Samples;Min_cycle;Max_cycle;Signal;HPM_P1;HPM_P2
2022/06/08 00:32:11;;;;;;;1.33;0.50;;;14.70;99.90;;;;;;4848306;29;20087;-91
2022/06/08 00:34:39;;;;;;;0.77;0.30;;;14.60;99.90;;;;;;4840465;29;20492;-92
2022/06/08 00:37:27;;;;;;;1.35;0.30;;;14.60;99.90;;;;;;4831888;29;20029;-91
2022/06/08 00:40:08;;;;;;;0.68;0.30;;;14.50;99.90;;;;;;4810765;29;20548;-91
2022/06/08 00:46:09;;;;;;;;;;;;;;;;;;;;;
2022/06/08 00:49:25;;;;;;;1.27;0.63;;;14.60;99.90;;;;;;4830267;29;20106;-91
2022/06/08 00:51:59;;;;;;;3.95;0.40;;;14.70;99.90;;;;;;4812588;29;20138;-91
2022/06/08 01:15:41;;;;;;;1.17;0.32;;;14.50;99.90;;;;;;6289409;22;1577319;-90
2022/06/08 01:18:25;;;;;;;1.27;0.40;;;14.50;99.90;;;;;;6313148;22;20041;-90
2022/06/08 01:21:19;;;;;;;1.45;0.50;;;14.60;99.90;;;;;;6313927;22;20090;-91
2022/06/08 01:55:09;;;;;;;1.10;0.47;;;14.30;99.90;;;;;;6346876;22;20032;-92
2022/06/08 01:58:15;;;;;;;1.42;0.35;;;14.40;99.90;;;;;;6311523;22;20333;-91
2022/06/08 02:01:34;;;;;;;0.75;0.40;;;14.30;99.90;;;;;;6304097;22;19999;-91
2022/06/08 02:08:02;;;;;;;1.45;0.50;;;14.20;99.90;;;;;;6184257;22;20009;-90
2022/06/08 02:11:14;;;;;;;1.33;0.70;;;14.20;99.90;;;;;;6339878;22;20083;-90
2022/06/08 02:14:51;;;;;;;;;;;;;;;;;;;;;
2022/06/08 02:25:22;;;;;;;2.00;0.47;;;14.00;99.90;;;;;;6134145;23;20009;-90
2022/06/08 02:28:30;;;;;;;1.17;0.40;;;14.00;99.90;;;;;;6158108;23;20001;-91
2022/06/08 02:31:46;;;;;;;1.15;0.60;;;13.90;99.90;;;;;;6158971;23;20110;-91
2022/06/08 02:35:03;;;;;;;1.30;0.50;;;13.80;99.90;;;;;;6148472;22;20458;-90
2022/06/08 02:41:23;;;;;;;1.52;0.60;;;13.90;99.90;;;;;;6322364;22;20002;-91
2022/06/08 02:51:53;;;;;;;;;;;;;;;;;;;;;
2022/06/08 02:55:00;;;;;;;1.20;0.60;;;13.80;99.90;;;;;;6122599;23;20091;-90
2022/06/08 02:57:50;;;;;;;1.10;0.50;;;13.70;99.90;;;;;;6130345;23;20036;-90
2022/06/08 03:00:50;;;;;;;1.70;0.68;;;13.70;99.90;;;;;;6273478;22;20010;-91
2022/06/08 03:03:51;;;;;;;;;;;;;;;;;;;;;
2022/06/08 03:07:06;;;;;;;0.82;0.40;;;13.70;99.90;;;;;;6349628;22;20471;-90
2022/06/08 03:10:02;;;;;;;1.10;0.50;;;13.60;99.90;;;;;;6313222;22;20010;-90
2022/06/08 03:13:23;;;;;;;1.38;0.50;;;13.60;99.90;;;;;;6323478;22;20006;-90
2022/06/08 03:16:07;;;;;;;0.60;0.40;;;13.80;99.90;;;;;;6256447;22;20008;-89
2022/06/08 03:19:10;;;;;;;1.92;0.90;;;13.60;99.90;;;;;;6253804;23;19997;-91
2022/06/08 03:22:20;;;;;;;;;;;;;;;;;;;;;
2022/06/08 03:25:30;;;;;;;;;;;;;;;;;;;;;
2022/06/08 03:28:18;;;;;;;2.13;0.70;;;13.70;99.90;;;;;;6273967;22;20647;-91
2022/06/08 03:30:54;;;;;;;1.00;0.50;;;13.70;99.90;;;;;;6245003;22;20004;-91
2022/06/08 03:33:55;;;;;;;1.60;0.52;;;13.70;99.90;;;;;;6292646;22;20070;-90
2022/06/08 03:36:53;;;;;;;1.73;0.45;;;13.70;99.90;;;;;;6304242;22;20031;-91
2022/06/08 03:39:47;;;;;;;1.25;0.57;;;13.70;99.90;;;;;;6309104;22;20009;-91
2022/06/08 03:42:56;;;;;;;1.23;0.50;;;13.70;99.90;;;;;;6241846;23;19996;-91
2022/06/08 03:46:11;;;;;;;1.20;0.40;;;13.70;99.90;;;;;;6181688;23;20104;-91
2022/06/08 03:49:33;;;;;;;0.85;0.40;;;13.60;99.90;;;;;;6136851;23;20073;-91
2022/06/08 03:52:55;;;;;;;2.40;0.57;;;13.80;99.90;;;;;;6179541;22;20420;-92
2022/06/08 03:55:44;;;;;;;1.45;0.50;;;13.70;99.90;;;;;;6224228;22;20030;-92
2022/06/08 03:58:33;;;;;;;1.88;0.60;;;13.80;99.90;;;;;;6250254;22;20018;-90
2022/06/08 04:01:05;;;;;;;0.77;0.43;;;13.70;99.90;;;;;;6179727;23;20080;-90
2022/06/08 04:03:33;;;;;;;;;;;13.70;99.90;;;;;;6186077;22;20004;-90
2022/06/08 04:10:13;;;;;;;1.10;0.43;;;13.60;99.90;;;;;;6311295;22;20042;-90
2022/06/08 04:13:00;;;;;;;2.53;0.35;;;13.70;99.90;;;;;;6306724;22;20159;-90
2022/06/08 04:19:52;;;;;;;2.38;0.50;;;13.90;99.90;;;;;;6274272;22;20003;-90
2022/06/08 04:22:33;;;;;;;;;;;;;;;;;;;;;
2022/06/08 04:25:09;;;;;;;1.85;0.28;;;14.00;99.90;;;;;;6318591;22;20019;-90
2022/06/08 04:31:26;;;;;;;2.58;0.73;;;14.10;99.90;;;;;;6283244;22;20007;-91
2022/06/08 04:34:23;;;;;;;1.13;0.40;;;13.80;99.90;;;;;;6313491;22;20003;-89
2022/06/08 04:37:32;;;;;;;1.48;0.50;;;14.10;99.90;;;;;;6284621;22;20007;-91
2022/06/08 04:40:53;;;;;;;2.58;0.40;;;14.00;99.90;;;;;;6296404;22;19999;-90
2022/06/08 04:43:48;;;;;;;0.98;0.32;;;14.20;99.90;;;;;;6318481;22;20003;-91
2022/06/08 04:47:03;;;;;;;;;;;;;;;;;;;;;
2022/06/08 04:57:53;;;;;;;;;;;;;;;;;;;;;
2022/06/08 05:00:49;;;;;;;1.05;0.38;;;14.20;99.90;;;;;;6308928;22;20022;-91
2022/06/08 05:04:03;;;;;;;1.83;0.47;;;14.10;99.90;;;;;;6344513;22;20021;-91
2022/06/08 05:07:07;;;;;;;1.42;0.50;;;13.80;99.90;;;;;;6176883;22;20032;-90
2022/06/08 05:10:38;;;;;;;;;;;;;;;;;;;;;
2022/06/08 06:20:29;;;;;;;1.13;0.32;;;16.00;99.90;;;;;;6089152;23;20188;-89
2022/06/08 06:22:55;;;;;;;1.55;0.43;;;16.60;99.90;;;;;;6281711;22;20015;-92
2022/06/08 06:25:20;;;;;;;1.58;0.38;;;16.00;99.90;;;;;;6345401;22;20337;-92
2022/06/08 06:27:49;;;;;;;1.10;0.30;;;16.00;99.90;;;;;;6344005;22;20013;-93
2022/06/08 06:30:15;;;;;;;1.75;0.40;;;16.00;99.90;;;;;;6345570;22;19999;-93
2022/06/08 06:32:43;;;;;;;2.25;0.30;;;16.10;99.90;;;;;;6347281;22;19995;-93
2022/06/08 06:35:26;;;;;;;2.83;0.40;;;16.20;99.90;;;;;;6378154;22;20425;-93
2022/06/08 06:37:54;;;;;;;0.65;0.22;;;16.00;99.90;;;;;;6374879;22;20020;-93
2022/06/08 06:40:29;;;;;;;0.30;0.20;;;16.30;99.90;;;;;;6375206;22;19999;-92
2022/06/08 06:42:57;;;;;;;0.35;0.20;;;16.70;99.90;;;;;;6378718;22;19987;-93
2022/06/08 06:45:23;;;;;;;2.15;0.40;;;15.90;99.90;;;;;;6384814;22;20003;-92
2022/06/08 06:47:54;;;;;;;0.93;0.30;;;16.40;99.90;;;;;;6352427;22;20053;-93
2022/06/08 06:50:25;;;;;;;0.75;0.25;;;16.50;99.90;;;;;;6355740;22;20005;-92
2022/06/08 06:52:54;;;;;;;0.75;0.25;;;16.60;99.90;;;;;;6387934;22;20014;-93
2022/06/08 06:59:22;;;;;;;2.20;0.35;;;16.50;99.90;;;;;;6385745;22;20025;-92
2022/06/08 07:05:25;;;;;;;;;;;;;;;;;;;;;
2022/06/08 07:11:57;;;;;;;;;;;;;;;;;;;;;
2022/06/08 07:18:34;;;;;;;;;;;;;;;;;;;;;
2022/06/08 07:33:07;;;;;;;1.27;0.30;;;16.40;99.90;;;;;;6228091;22;20022;-89
2022/06/08 07:36:19;;;;;;;1.45;0.25;;;16.30;99.90;;;;;;6279225;22;20073;-90
2022/06/08 12:21:21;;;;;;;1.08;0.17;;;26.90;80.20;;;;;;6328818;22;20037;-89
2022/06/08 12:24:01;;;;;;;0.93;0.10;;;25.80;78.90;;;;;;6306863;22;20018;-86
2022/06/08 12:26:36;;;;;;;0.50;0.20;;;25.90;78.70;;;;;;6302466;22;19995;-86
2022/06/08 12:29:34;;;;;;;0.73;0.10;;;25.90;79.80;;;;;;6303392;22;20031;-85
2022/06/08 12:32:06;;;;;;;3.40;0.73;;;25.10;80.20;;;;;;6302259;22;19995;-86
2022/06/08 12:34:37;;;;;;;0.85;0.17;;;24.70;82.60;;;;;;6273119;22;20031;-85
2022/06/08 12:37:28;;;;;;;1.02;0.10;;;25.10;82.00;;;;;;6272589;22;20094;-86
2022/06/08 12:40:02;;;;;;;0.35;0.13;;;25.10;81.90;;;;;;6273450;22;20007;-86
2022/06/08 12:42:29;;;;;;;0.32;0.08;;;25.10;79.90;;;;;;6273161;22;20003;-86
2022/06/08 12:44:58;;;;;;;0.75;0.20;;;24.80;79.40;;;;;;6272794;22;20086;-85
2022/06/08 12:47:29;;;;;;;1.23;0.10;;;24.80;80.60;;;;;;6272672;22;20434;-85
2022/06/08 12:49:55;;;;;;;0.65;0.22;;;24.80;80.60;;;;;;6273277;22;19996;-85
2022/06/08 12:52:39;;;;;;;0.20;0.10;;;24.70;80.60;;;;;;6272928;22;20014;-88
2022/06/08 12:55:21;;;;;;;2.13;0.55;;;24.20;81.50;;;;;;6272153;22;20000;-87
2022/06/08 12:57:47;;;;;;;0.50;0.10;;;25.00;84.50;;;;;;6272968;22;19998;-87
2022/06/08 13:00:18;;;;;;;0.65;0.10;;;25.10;81.40;;;;;;6274664;22;19996;-85
2022/06/08 13:02:44;;;;;;;0.57;0.13;;;24.80;81.60;;;;;;6274247;22;19996;-87
2022/06/08 13:05:35;;;;;;;1.20;0.10;;;24.60;82.60;;;;;;6272315;22;20000;-87
2022/06/08 13:08:02;;;;;;;0.57;0.10;;;24.40;81.50;;;;;;6272895;22;20000;-86
2022/06/08 13:10:34;;;;;;;0.20;0.10;;;24.30;82.00;;;;;;6272146;22;20004;-87
2022/06/08 13:13:11;;;;;;;;;;;24.00;81.00;;;;;;6275645;22;19996;-87
2022/06/08 13:15:42;;;;;;;1.13;0.30;;;23.90;81.70;;;;;;6274794;22;19989;-87
2022/06/08 13:18:37;;;;;;;0.43;0.20;;;24.10;82.90;;;;;;6274554;22;20641;-88
2022/06/08 13:21:12;;;;;;;0.75;0.10;;;23.80;82.40;;;;;;6275088;22;20465;-87
2022/06/08 13:23:42;;;;;;;0.55;0.30;;;24.20;82.30;;;;;;6273214;22;20038;-85
2022/06/08 13:26:27;;;;;;;0.43;0.10;;;23.90;80.70;;;;;;6272623;22;20006;-87
2022/06/08 13:29:06;;;;;;;0.50;0.20;;;23.60;83.40;;;;;;6273121;22;20008;-87
2022/06/08 13:31:32;;;;;;;1.77;0.45;;;23.60;82.50;;;;;;6272659;22;20004;-87
2022/06/08 13:34:03;;;;;;;0.25;0.10;;;23.80;81.50;;;;;;6272071;22;20070;-87
2022/06/08 13:36:34;;;;;;;0.30;0.10;;;23.40;79.00;;;;;;6274132;22;20063;-87
2022/06/08 13:39:11;;;;;;;0.73;0.10;;;23.70;84.10;;;;;;6272671;22;20065;-86
2022/06/08 13:41:39;;;;;;;0.47;0.20;;;23.60;80.10;;;;;;6272274;22;20384;-87
2022/06/08 13:44:17;;;;;;;0.77;0.10;;;23.80;84.90;;;;;;6273411;22;19996;-86
2022/06/08 13:46:44;;;;;;;0.60;0.10;;;23.50;83.40;;;;;;6273604;22;20008;-86
2022/06/08 13:49:15;;;;;;;0.32;0.10;;;23.50;80.10;;;;;;6274062;22;20431;-87
2022/06/08 13:51:41;;;;;;;0.17;0.13;;;23.90;83.10;;;;;;6274566;22;20000;-86
2022/06/08 13:54:15;;;;;;;1.33;0.15;;;23.90;87.40;;;;;;6274556;22;20055;-87
2022/06/08 13:56:41;;;;;;;1.58;0.20;;;23.90;85.80;;;;;;6272251;22;20014;-86
2022/06/08 13:59:06;;;;;;;1.70;0.30;;;23.60;86.60;;;;;;6268955;22;20035;-87
2022/06/08 14:01:33;;;;;;;1.55;0.30;;;23.60;84.10;;;;;;6272801;22;20000;-87
2022/06/08 14:04:00;;;;;;;1.27;0.13;;;23.30;84.40;;;;;;6274068;22;20000;-87
2022/06/08 14:14:51;;;;;;;3.58;0.63;;;22.90;86.80;;;;;;6275773;22;20105;-87
2022/06/08 14:17:19;;;;;;;0.40;0.10;;;22.70;86.00;;;;;;6273865;22;20028;-86
2022/06/08 14:19:48;;;;;;;1.92;0.10;;;22.60;85.40;;;;;;6273264;22;20014;-87
2022/06/08 14:22:19;;;;;;;2.92;0.10;;;22.80;85.00;;;;;;6275712;22;20446;-86
2022/06/08 14:24:48;;;;;;;1.02;0.20;;;22.70;85.60;;;;;;6273167;22;20434;-86
2022/06/08 14:27:16;;;;;;;0.30;0.10;;;22.60;85.40;;;;;;6275566;22;20039;-86
2022/06/08 14:29:42;;;;;;;0.82;0.20;;;22.60;87.00;;;;;;6275389;22;20507;-86
2022/06/08 14:32:35;;;;;;;1.85;0.20;;;22.40;88.00;;;;;;6275234;22;20003;-86
2022/06/08 14:35:02;;;;;;;0.40;0.10;;;22.20;87.50;;;;;;6274510;22;20010;-86
2022/06/08 14:37:29;;;;;;;0.85;0.10;;;22.00;88.60;;;;;;6274118;22;20330;-85
2022/06/08 14:39:55;;;;;;;1.15;0.10;;;21.80;89.30;;;;;;6275081;22;19996;-86
2022/06/08 14:42:20;;;;;;;0.30;0.00;;;21.70;89.70;;;;;;6273197;22;20007;-85
2022/06/08 14:44:47;;;;;;;0.93;0.15;;;21.50;91.10;;;;;;6272793;22;20510;-84
2022/06/08 14:47:26;;;;;;;1.90;0.20;;;21.40;93.80;;;;;;6272813;22;20058;-86
2022/06/08 14:49:53;;;;;;;0.80;0.20;;;21.10;95.00;;;;;;6273919;22;20008;-84
2022/06/08 14:52:22;;;;;;;0.60;0.10;;;20.80;97.70;;;;;;6274457;22;20071;-85
2022/06/08 14:54:48;;;;;;;0.95;0.60;;;20.50;97.70;;;;;;6273063;22;20007;-86
2022/06/08 14:57:20;;;;;;;0.55;0.30;;;20.10;99.90;;;;;;6273862;22;20015;-85
2022/06/08 14:59:48;;;;;;;1.25;0.30;;;19.90;99.90;;;;;;6270657;22;20023;-86
2022/06/08 15:02:23;;;;;;;1.38;0.30;;;19.70;99.90;;;;;;6275070;22;20070;-87
2022/06/08 15:04:49;;;;;;;2.28;0.30;;;19.50;99.90;;;;;;6274601;22;20004;-86
2022/06/08 15:07:16;;;;;;;0.80;0.25;;;19.30;99.90;;;;;;6274584;22;20003;-86
2022/06/08 15:09:43;;;;;;;1.23;0.25;;;19.30;99.90;;;;;;6273240;22;20349;-86
2022/06/08 15:12:14;;;;;;;0.85;0.22;;;19.20;99.90;;;;;;6273088;22;20065;-86
2022/06/08 15:14:47;;;;;;;0.55;0.30;;;19.20;99.90;;;;;;6274634;22;20053;-87
2022/06/08 15:17:23;;;;;;;4.05;1.13;;;19.20;99.90;;;;;;6273024;22;20007;-86
2022/06/08 15:20:05;;;;;;;1.48;0.30;;;19.30;99.90;;;;;;6273414;22;20007;-86
2022/06/08 15:22:33;;;;;;;0.57;0.30;;;19.40;99.90;;;;;;6275287;22;20003;-85
2022/06/08 15:25:00;;;;;;;2.70;0.77;;;19.50;99.90;;;;;;6277769;22;20499;-86
2022/06/08 15:27:32;;;;;;;0.30;0.10;;;19.50;99.90;;;;;;6278172;22;20000;-86
2022/06/08 15:29:59;;;;;;;0.57;0.20;;;19.40;99.90;;;;;;6306143;22;20311;-86
2022/06/08 15:32:26;;;;;;;1.25;0.30;;;19.40;99.90;;;;;;6306847;22;19995;-86
2022/06/08 15:34:55;;;;;;;1.27;0.43;;;19.40;99.90;;;;;;6278216;22;20441;-86
2022/06/08 15:37:33;;;;;;;0.40;0.20;;;19.40;99.90;;;;;;6311323;22;20003;-87
2022/06/08 15:40:03;;;;;;;2.20;0.30;;;19.50;99.90;;;;;;6280879;22;20003;-86
2022/06/08 15:42:32;;;;;;;0.80;0.20;;;19.50;99.90;;;;;;6280020;22;20007;-85
2022/06/08 15:44:59;;;;;;;1.45;0.30;;;19.40;99.90;;;;;;6277205;22;20288;-86
2022/06/08 15:47:32;;;;;;;1.05;0.20;;;19.40;99.90;;;;;;6306186;22;20067;-86
2022/06/08 15:49:59;;;;;;;4.80;0.30;;;19.10;99.90;;;;;;6278712;22;20003;-87
2022/06/08 15:52:32;;;;;;;0.95;0.30;;;19.00;99.90;;;;;;6278327;22;19999;-87
2022/06/08 15:55:02;;;;;;;2.08;0.45;;;18.90;99.90;;;;;;6305139;22;20438;-86
2022/06/08 15:57:29;;;;;;;2.22;0.52;;;18.80;99.90;;;;;;6278701;22;20007;-85
2022/06/08 15:59:58;;;;;;;0.93;0.20;;;18.70;99.90;;;;;;6301255;22;20402;-86
2022/06/08 16:02:24;;;;;;;0.85;0.45;;;18.60;99.90;;;;;;6278153;22;20007;-85
2022/06/08 16:04:50;;;;;;;0.47;0.20;;;18.50;99.90;;;;;;6304655;22;20111;-86
2022/06/08 16:07:15;;;;;;;0.65;0.30;;;18.40;99.90;;;;;;6306090;22;20000;-87
2022/06/08 16:09:41;;;;;;;0.40;0.20;;;18.20;99.90;;;;;;6304986;22;20441;-87
2022/06/08 16:12:10;;;;;;;0.70;0.22;;;17.80;99.90;;;;;;6305562;22;19995;-86
2022/06/08 16:14:37;;;;;;;1.02;0.25;;;17.70;99.90;;;;;;6278492;22;20490;-87
2022/06/08 16:17:03;;;;;;;0.80;0.30;;;17.70;99.90;;;;;;6305003;22;20007;-86
2022/06/08 16:19:29;;;;;;;0.98;0.30;;;17.60;99.90;;;;;;6277832;22;20007;-86
2022/06/08 16:21:54;;;;;;;1.02;0.30;;;17.60;99.90;;;;;;6278123;22;20463;-86
2022/06/08 16:24:20;;;;;;;1.30;0.38;;;17.60;99.90;;;;;;6304937;22;20484;-86
2022/06/08 16:26:46;;;;;;;0.82;0.30;;;17.60;99.90;;;;;;6277477;22;20448;-86
2022/06/08 16:29:13;;;;;;;1.42;0.38;;;17.50;99.90;;;;;;6305030;22;20006;-86
2022/06/08 16:31:39;;;;;;;0.93;0.20;;;17.50;99.90;;;;;;6305316;22;19999;-86
2022/06/08 16:34:05;;;;;;;0.95;0.40;;;17.40;99.90;;;;;;6304456;22;19999;-86
2022/06/08 16:36:32;;;;;;;1.00;0.40;;;17.30;99.90;;;;;;6277592;22;20003;-86
2022/06/08 16:38:58;;;;;;;1.67;0.20;;;17.40;99.90;;;;;;6305270;22;20007;-86
2022/06/08 16:41:23;;;;;;;0.70;0.30;;;17.40;99.90;;;;;;6277766;22;19999;-86
2022/06/08 16:43:49;;;;;;;1.95;0.30;;;17.30;99.90;;;;;;6304545;22;20422;-86
2022/06/08 16:46:15;;;;;;;1.20;0.35;;;17.30;99.90;;;;;;6276794;22;19999;-86
2022/06/08 16:48:43;;;;;;;1.67;0.47;;;17.30;99.90;;;;;;6277731;22;20600;-87
2022/06/08 16:51:08;;;;;;;0.50;0.20;;;17.10;99.90;;;;;;6277570;22;20003;-86
2022/06/08 16:53:36;;;;;;;0.90;0.30;;;17.20;99.90;;;;;;6304525;22;20006;-86
2022/06/08 16:56:03;;;;;;;0.55;0.10;;;17.10;99.90;;;;;;6305396;22;20011;-87
2022/06/08 17:01:13;;;;;;;0.52;0.20;;;17.10;99.90;;;;;;6305649;22;20029;-86
2022/06/08 17:03:39;;;;;;;0.55;0.20;;;17.00;99.90;;;;;;6304906;22;20436;-86
2022/06/08 17:06:05;;;;;;;1.13;0.50;;;17.00;99.90;;;;;;6278045;22;20007;-87
2022/06/08 17:08:30;;;;;;;0.63;0.30;;;17.00;99.90;;;;;;6305539;22;20003;-87
2022/06/08 17:13:41;;;;;;;1.10;0.30;;;16.80;99.90;;;;;;6305542;22;20468;-86
2022/06/08 17:16:08;;;;;;;0.40;0.20;;;16.80;99.90;;;;;;6277323;22;20003;-86
2022/06/08 17:18:34;;;;;;;1.73;0.47;;;16.80;99.90;;;;;;6278750;22;20008;-87
2022/06/08 17:21:00;;;;;;;1.33;0.40;;;16.70;99.90;;;;;;6279539;22;20035;-87
2022/06/08 17:23:25;;;;;;;2.90;0.50;;;16.70;99.90;;;;;;6305726;22;20063;-87
2022/06/08 17:25:51;;;;;;;1.17;0.28;;;16.70;99.90;;;;;;6306854;22;20006;-87
2022/06/08 17:28:18;;;;;;;0.30;0.20;;;16.70;99.90;;;;;;6307156;22;19996;-87
2022/06/08 17:30:56;;;;;;;0.47;0.20;;;16.80;99.90;;;;;;6308012;22;20006;-87
2022/06/08 17:33:27;;;;;;;0.75;0.30;;;16.80;99.90;;;;;;6306071;22;20430;-87
2022/06/08 17:35:53;;;;;;;1.65;0.63;;;16.80;99.90;;;;;;6306599;22;20374;-87
2022/06/08 17:38:19;;;;;;;0.75;0.20;;;16.80;99.90;;;;;;6280514;22;20007;-87
2022/06/08 17:40:47;;;;;;;0.88;0.50;;;16.80;99.90;;;;;;6308224;22;20049;-88
2022/06/08 17:43:14;;;;;;;1.80;0.20;;;16.80;99.90;;;;;;6279914;22;20145;-88
2022/06/08 17:45:40;;;;;;;1.30;0.32;;;16.70;99.90;;;;;;6307467;22;20003;-88
2022/06/08 17:48:07;;;;;;;0.68;0.20;;;16.80;99.90;;;;;;6308430;22;20006;-87
2022/06/08 17:50:34;;;;;;;0.65;0.25;;;16.70;99.90;;;;;;6280603;22;20057;-87
2022/06/08 17:53:00;;;;;;;0.60;0.20;;;16.60;99.90;;;;;;6307657;22;20010;-87
2022/06/08 17:55:26;;;;;;;1.02;0.30;;;16.60;99.90;;;;;;6311001;22;20066;-88
2022/06/08 17:57:51;;;;;;;0.77;0.30;;;16.70;99.90;;;;;;6291173;22;20460;-87
2022/06/08 18:00:19;;;;;;;0.55;0.20;;;16.60;99.90;;;;;;6317469;22;19995;-89
2022/06/08 18:02:48;;;;;;;0.40;0.20;;;16.60;99.90;;;;;;6319506;22;20078;-89
2022/06/08 18:05:15;;;;;;;1.27;0.20;;;16.40;99.90;;;;;;6316684;22;20338;-89
2022/06/08 18:07:41;;;;;;;0.30;0.20;;;16.50;99.90;;;;;;6280590;22;20094;-89
2022/06/08 18:10:26;;;;;;;0.50;0.20;;;16.40;99.90;;;;;;6281312;22;20132;-89
2022/06/08 18:12:53;;;;;;;0.28;0.20;;;16.40;99.90;;;;;;6281206;22;20003;-89
2022/06/08 18:15:20;;;;;;;0.40;0.15;;;16.30;99.90;;;;;;6280237;22;19999;-89
2022/06/08 18:17:48;;;;;;;1.15;0.20;;;16.20;99.90;;;;;;6280993;22;20004;-88
2022/06/08 18:20:31;;;;;;;1.55;0.20;;;16.10;99.90;;;;;;6281791;22;20086;-89
2022/06/08 18:25:29;;;;;;;1.00;0.40;;;16.40;99.90;;;;;;6273375;22;20048;-88
2022/06/08 18:28:00;;;;;;;3.45;0.40;;;16.30;99.90;;;;;;6280134;22;20003;-88
2022/06/08 18:30:30;;;;;;;1.02;0.40;;;16.40;99.90;;;;;;6253310;22;20074;-89
2022/06/08 18:32:56;;;;;;;0.90;0.30;;;16.30;99.90;;;;;;6251027;22;20081;-89
2022/06/08 18:35:24;;;;;;;0.70;0.20;;;16.20;99.90;;;;;;6249519;22;20066;-89
2022/06/08 18:37:51;;;;;;;0.77;0.20;;;16.20;99.90;;;;;;6251428;22;20004;-88
2022/06/08 18:40:18;;;;;;;0.22;0.13;;;16.30;99.90;;;;;;6279421;22;20007;-89
2022/06/08 18:42:55;;;;;;;1.10;0.30;;;16.20;99.90;;;;;;6253617;22;20090;-89
2022/06/08 18:45:23;;;;;;;0.30;0.10;;;16.30;99.90;;;;;;6252927;22;20003;-89
2022/06/08 18:47:52;;;;;;;0.85;0.30;;;16.10;99.90;;;;;;6256838;22;19999;-89
2022/06/08 18:50:21;;;;;;;0.47;0.20;;;16.20;99.90;;;;;;6283765;22;20003;-90
2022/06/08 18:52:51;;;;;;;0.45;0.20;;;16.20;99.90;;;;;;6252157;22;20458;-90
2022/06/08 18:55:33;;;;;;;0.88;0.20;;;16.20;99.90;;;;;;6249228;22;20049;-90
2022/06/08 18:58:07;;;;;;;1.35;0.32;;;16.20;99.90;;;;;;6250327;22;20044;-90
2022/06/08 19:00:35;;;;;;;0.55;0.20;;;16.20;99.90;;;;;;6253782;22;20007;-89
2022/06/08 19:03:02;;;;;;;0.70;0.30;;;16.20;99.90;;;;;;6277653;22;20006;-87
2022/06/08 19:05:31;;;;;;;1.35;0.30;;;16.30;99.90;;;;;;6249679;22;20010;-87
2022/06/08 19:07:57;;;;;;;0.90;0.40;;;16.30;99.90;;;;;;6249358;22;20008;-87
2022/06/08 19:10:23;;;;;;;1.15;0.20;;;16.20;99.90;;;;;;6249591;22;20338;-87
2022/06/08 19:12:49;;;;;;;0.43;0.20;;;16.30;99.90;;;;;;6249229;22;20455;-88
2022/06/08 19:15:22;;;;;;;0.52;0.28;;;16.30;99.90;;;;;;6248725;22;20086;-88
2022/06/08 19:20:42;;;;;;;1.38;0.30;;;16.20;99.90;;;;;;6276187;22;20101;-87
2022/06/08 19:23:14;;;;;;;1.17;0.20;;;16.20;99.90;;;;;;6248873;22;20031;-87
2022/06/08 19:25:41;;;;;;;1.55;0.30;;;16.10;99.90;;;;;;6249342;22;20011;-87
2022/06/08 19:28:11;;;;;;;1.25;0.43;;;16.00;99.90;;;;;;6249704;22;20000;-87
2022/06/08 19:30:49;;;;;;;1.25;0.45;;;15.90;99.90;;;;;;6249092;22;20037;-87
2022/06/08 19:33:17;;;;;;;1.15;0.40;;;15.80;99.90;;;;;;6278865;22;20004;-87
2022/06/08 19:35:46;;;;;;;1.17;0.30;;;15.80;99.90;;;;;;6249982;22;20011;-87
2022/06/08 19:38:15;;;;;;;3.25;0.30;;;15.80;99.90;;;;;;6249368;22;20057;-87
2022/06/08 19:40:42;;;;;;;1.98;0.50;;;15.80;99.90;;;;;;6247801;22;20004;-87
2022/06/08 19:43:09;;;;;;;0.47;0.30;;;15.90;99.90;;;;;;6275632;22;20419;-87
2022/06/08 19:45:35;;;;;;;1.02;0.20;;;15.90;99.90;;;;;;6275725;22;20018;-87
2022/06/08 19:48:00;;;;;;;2.03;0.50;;;15.80;99.90;;;;;;6274966;22;20000;-87
2022/06/08 19:50:28;;;;;;;1.27;0.47;;;16.40;99.90;;;;;;6247249;22;19996;-87
2022/06/08 19:52:55;;;;;;;1.80;0.38;;;15.80;99.90;;;;;;6248434;22;20449;-87
2022/06/08 19:55:24;;;;;;;1.13;0.30;;;15.60;99.90;;;;;;6247573;22;20456;-87
2022/06/08 19:57:50;;;;;;;1.70;0.45;;;15.50;99.90;;;;;;6274709;22;20027;-87
2022/06/08 20:00:17;;;;;;;0.68;0.30;;;15.60;99.90;;;;;;6248405;22;20065;-87
2022/06/08 20:02:43;;;;;;;1.73;0.60;;;15.60;99.90;;;;;;6248304;22;19999;-86
2022/06/08 20:05:09;;;;;;;1.85;0.50;;;15.50;99.90;;;;;;6274398;22;20008;-86
2022/06/08 20:07:35;;;;;;;2.25;0.70;;;15.80;99.90;;;;;;6249012;22;20010;-86
2022/06/08 20:10:03;;;;;;;2.70;0.40;;;15.60;99.90;;;;;;6278616;22;20042;-87
2022/06/08 20:12:28;;;;;;;2.45;0.40;;;15.50;99.90;;;;;;6248236;22;20004;-86
2022/06/08 20:14:54;;;;;;;0.90;0.30;;;16.20;99.90;;;;;;6247538;22;20461;-86
2022/06/08 20:17:24;;;;;;;0.95;0.30;;;15.40;99.90;;;;;;6247517;22;20506;-86
2022/06/08 20:19:50;;;;;;;2.33;0.60;;;15.40;99.90;;;;;;6248076;22;20457;-86
2022/06/08 20:22:15;;;;;;;0.52;0.30;;;15.40;99.90;;;;;;6274587;22;20057;-87
2022/06/08 20:24:43;;;;;;;0.85;0.30;;;15.40;99.90;;;;;;6247445;22;20062;-86
2022/06/08 20:27:09;;;;;;;1.25;0.80;;;15.50;99.90;;;;;;6247324;22;20737;-86
2022/06/08 20:29:35;;;;;;;3.03;0.52;;;15.90;99.90;;;;;;6274543;22;19999;-86
2022/06/08 20:32:03;;;;;;;0.85;0.20;;;15.70;99.90;;;;;;6246744;22;20003;-86
2022/06/08 20:34:33;;;;;;;0.73;0.32;;;15.70;99.90;;;;;;6274758;22;20003;-86
2022/06/08 20:36:59;;;;;;;1.15;0.40;;;16.20;99.90;;;;;;6247115;22;20039;-86
2022/06/08 20:39:25;;;;;;;1.10;0.38;;;15.80;99.90;;;;;;6275231;22;20000;-86
2022/06/08 20:41:50;;;;;;;1.17;0.20;;;15.50;99.90;;;;;;6247440;22;20026;-86
2022/06/08 20:44:17;;;;;;;0.50;0.20;;;15.50;99.90;;;;;;6273997;22;20038;-86
2022/06/08 20:46:43;;;;;;;0.63;0.20;;;15.50;99.90;;;;;;6273547;22;20415;-86
2022/06/08 20:49:09;;;;;;;0.63;0.25;;;15.60;99.90;;;;;;6274257;22;20476;-86
2022/06/08 20:51:35;;;;;;;0.68;0.20;;;15.70;99.90;;;;;;6248041;22;20433;-86
2022/06/08 20:54:02;;;;;;;0.30;0.10;;;15.70;99.90;;;;;;6247699;22;20020;-86
2022/06/08 20:56:28;;;;;;;0.40;0.40;;;15.70;99.90;;;;;;6246924;22;20004;-86
2022/06/08 20:58:54;;;;;;;0.75;0.20;;;15.70;99.90;;;;;;6274419;22;20112;-86
2022/06/08 21:01:20;;;;;;;0.20;0.10;;;15.70;99.90;;;;;;6274537;22;20481;-86
2022/06/08 21:03:46;;;;;;;0.95;0.38;;;15.70;99.90;;;;;;6245859;22;19999;-86
2022/06/08 21:06:13;;;;;;;0.22;0.10;;;15.60;99.90;;;;;;6246215;22;20073;-86
2022/06/08 21:08:41;;;;;;;0.22;0.08;;;15.70;99.90;;;;;;6274215;22;20081;-86
2022/06/08 21:11:09;;;;;;;3.00;0.30;;;15.70;99.90;;;;;;6275493;22;20077;-86
2022/06/08 21:13:35;;;;;;;0.47;0.20;;;15.70;99.90;;;;;;6249616;22;20007;-86
2022/06/08 21:16:01;;;;;;;0.30;0.15;;;15.70;99.90;;;;;;6248449;22;20069;-86
2022/06/08 21:18:27;;;;;;;0.50;0.20;;;15.60;99.90;;;;;;6275614;22;20007;-86
2022/06/08 21:20:53;;;;;;;1.00;0.10;;;15.50;99.90;;;;;;6247628;22;20018;-86
2022/06/08 21:23:19;;;;;;;0.10;0.10;;;15.60;99.90;;;;;;6248288;22;20004;-86
2022/06/08 21:25:45;;;;;;;0.17;0.10;;;15.50;99.90;;;;;;6248202;22;20008;-86
2022/06/08 21:28:11;;;;;;;0.32;0.10;;;15.50;99.90;;;;;;6249239;22;20003;-85
2022/06/08 21:30:37;;;;;;;0.20;0.10;;;15.50;99.90;;;;;;6248735;22;19996;-86
2022/06/08 21:33:04;;;;;;;0.47;0.30;;;15.50;99.90;;;;;;6248902;22;20031;-86
2022/06/08 21:35:32;;;;;;;0.35;0.00;;;15.50;99.90;;;;;;6274878;22;20753;-86
2022/06/08 21:37:58;;;;;;;0.90;0.10;;;15.40;99.90;;;;;;6275679;22;19996;-86
2022/06/08 21:40:25;;;;;;;0.28;0.10;;;15.50;99.90;;;;;;6248062;22;20427;-86
2022/06/08 21:42:52;;;;;;;0.15;0.10;;;15.50;99.90;;;;;;6248688;22;20011;-86
2022/06/08 21:45:21;;;;;;;0.38;0.10;;;15.50;99.90;;;;;;6247686;22;20029;-86
2022/06/08 21:47:47;;;;;;;0.22;0.10;;;15.50;99.90;;;;;;6275586;22;20010;-86
2022/06/08 21:50:13;;;;;;;0.10;0.08;;;15.50;99.90;;;;;;6248705;22;20393;-86
2022/06/08 21:52:41;;;;;;;1.42;0.10;;;15.50;99.90;;;;;;6248725;22;20417;-86
2022/06/08 21:55:10;;;;;;;0.17;0.10;;;15.80;99.90;;;;;;6247732;22;20054;-86
2022/06/08 21:57:37;;;;;;;1.60;0.20;;;15.50;99.90;;;;;;6247512;22;20061;-86
2022/06/08 22:00:07;;;;;;;0.45;0.20;;;15.50;99.90;;;;;;6248248;22;20084;-86
2022/06/08 22:02:36;;;;;;;0.10;0.10;;;15.40;99.90;;;;;;6248399;22;20003;-86
2022/06/08 22:05:03;;;;;;;0.10;0.10;;;15.40;99.90;;;;;;6247701;22;20082;-86
2022/06/08 22:07:29;;;;;;;0.22;0.13;;;15.40;99.90;;;;;;6248668;22;20065;-85
2022/06/08 22:09:55;;;;;;;1.23;0.20;;;15.30;99.90;;;;;;6248381;22;20003;-86
2022/06/08 22:12:20;;;;;;;0.10;0.10;;;15.30;99.90;;;;;;6248502;22;20082;-86
2022/06/08 22:14:50;;;;;;;0.63;0.10;;;15.30;99.90;;;;;;6247368;22;20008;-86
2022/06/08 22:17:17;;;;;;;0.25;0.13;;;15.20;99.90;;;;;;6274530;22;20034;-86
2022/06/08 22:19:43;;;;;;;0.10;0.10;;;15.20;99.90;;;;;;6275377;22;20030;-86
2022/06/08 22:22:09;;;;;;;0.50;0.10;;;15.20;99.90;;;;;;6275066;22;20004;-86
2022/06/08 22:24:36;;;;;;;0.38;0.10;;;15.10;99.90;;;;;;6248085;22;20137;-86
2022/06/08 22:27:02;;;;;;;0.00;0.00;;;15.10;99.90;;;;;;6275279;22;20007;-86